Time;durP1;ratioP1;P1;durP2;ratioP2;P2;SDS_P1;SDS_P2;PMS_P1;PMS_P2;Temp;Humidity;BMP_temperature;BMP_pressure;BME280_temperature;BME280_humidity;BME280_pressure;Samples;Min_cycle;Max_cycle;Signal;HPM_P1;HPM_P2
2022/05/01 00:01:50;;;;;;;13.07;11.75;;;;;;;-148.33;100.00;56587.81;5031553;28;20036;-60
2022/05/01 00:04:16;;;;;;;11.70;10.80;;;;;;;-148.33;100.00;56587.81;5031022;28;20132;-60
2022/05/01 00:06:41;;;;;;;13.20;11.88;;;;;;;-148.33;100.00;56587.81;5030856;28;20490;-60
2022/05/01 00:09:06;;;;;;;14.02;12.13;;;;;;;-148.33;100.00;56587.81;5031183;28;20033;-60
2022/05/01 00:11:32;;;;;;;13.68;12.35;;;;;;;-148.33;100.00;56587.81;5030407;28;20048;-60
2022/05/01 00:13:58;;;;;;;14.50;11.57;;;;;;;-148.33;100.00;56587.81;5031316;28;20025;-60
2022/05/01 00:16:24;;;;;;;11.68;10.48;;;;;;;-148.33;100.00;56587.81;5030912;28;20032;-60
2022/05/01 00:18:49;;;;;;;12.43;11.30;;;;;;;-148.33;100.00;56587.81;5030859;28;20029;-59
2022/05/01 00:21:14;;;;;;;12.55;10.70;;;;;;;-148.33;100.00;56587.81;5030524;28;20051;-60
2022/05/01 00:23:40;;;;;;;12.43;11.13;;;;;;;-148.33;100.00;56587.81;5030941;28;20100;-61
2022/05/01 00:26:06;;;;;;;12.18;11.05;;;;;;;-148.33;100.00;56587.81;5030855;28;20132;-60
2022/05/01 00:28:36;;;;;;;12.65;11.35;;;;;;;-148.33;100.00;56587.81;5030634;28;20507;-60
2022/05/01 00:31:04;;;;;;;11.02;10.02;;;;;;;-148.33;100.00;56587.81;5030256;28;20504;-59
2022/05/01 00:36:26;;;;;;;16.00;10.35;;;;;;;-148.33;100.00;56587.81;5030736;28;20128;-60
2022/05/01 00:38:53;;;;;;;11.57;10.63;;;;;;;-148.33;100.00;56587.81;5030948;28;20036;-60
2022/05/01 00:41:21;;;;;;;11.05;10.13;;;;;;;-148.33;100.00;56587.81;5030513;28;20025;-60
2022/05/01 00:44:03;;;;;;;12.18;10.75;;;;;;;-148.33;100.00;56587.81;5029894;28;20029;-60
2022/05/01 00:46:52;;;;;;;11.43;10.43;;;;;;;-148.33;100.00;56587.81;5035201;28;20529;-60
2022/05/01 00:49:24;;;;;;;12.35;11.15;;;;;;;-148.33;100.00;56587.81;5043607;28;20029;-60
2022/05/01 00:51:55;;;;;;;12.50;11.30;;;;;;;-148.33;100.00;56587.81;5049861;28;20373;-59
2022/05/01 00:54:26;;;;;;;13.05;10.70;;;;;;;-148.33;100.00;56587.81;5048989;28;20025;-60
2022/05/01 00:56:54;;;;;;;12.65;11.45;;;;;;;-148.33;100.00;56587.81;5049309;28;20024;-60
2022/05/01 00:59:20;;;;;;;12.95;11.75;;;;;;;-148.33;100.00;56587.81;5049894;28;20278;-60
2022/05/01 01:01:47;;;;;;;12.18;11.02;;;;;;;-148.33;100.00;56587.81;5049775;28;20437;-59
2022/05/01 01:04:12;;;;;;;12.45;11.13;;;;;;;-148.33;100.00;56587.81;5049277;28;20370;-59
2022/05/01 01:06:42;;;;;;;13.43;12.23;;;;;;;-148.33;100.00;56587.81;5049280;28;20028;-60
2022/05/01 01:09:10;;;;;;;12.27;11.07;;;;;;;-148.33;100.00;56587.81;5048745;28;20021;-60
2022/05/01 01:11:37;;;;;;;13.70;12.25;;;;;;;-148.33;100.00;56587.81;5049096;28;20039;-60
2022/05/01 01:14:05;;;;;;;12.95;11.60;;;;;;;-148.33;100.00;56587.81;5049446;28;20035;-60
2022/05/01 01:16:32;;;;;;;13.18;11.93;;;;;;;-148.33;100.00;56587.81;5049690;28;20070;-60
2022/05/01 01:18:57;;;;;;;12.98;11.68;;;;;;;-148.33;100.00;56587.81;5048795;28;20028;-60
2022/05/01 01:21:22;;;;;;;12.68;11.38;;;;;;;-148.33;100.00;56587.81;5048958;28;20469;-61
2022/05/01 01:23:48;;;;;;;12.60;11.30;;;;;;;-148.33;100.00;56587.81;5048853;28;20037;-60
2022/05/01 01:26:14;;;;;;;12.25;11.10;;;;;;;-148.33;100.00;56587.81;5048839;28;20112;-59
2022/05/01 01:28:42;;;;;;;13.25;12.05;;;;;;;-148.33;100.00;56587.81;5047392;28;20040;-60
2022/05/01 01:33:59;;;;;;;13.13;11.90;;;;;;;-148.33;100.00;56587.81;5044009;28;20035;-60
2022/05/01 01:36:28;;;;;;;13.82;12.52;;;;;;;-148.33;100.00;56587.81;5029998;28;20375;-60
2022/05/01 01:38:53;;;;;;;13.95;12.55;;;;;;;-148.33;100.00;56587.81;5029329;28;20041;-59
2022/05/01 01:41:22;;;;;;;14.65;13.07;;;;;;;-148.33;100.00;56587.81;5029279;28;20371;-60
2022/05/01 01:43:48;;;;;;;14.13;12.77;;;;;;;-148.33;100.00;56587.81;5029437;28;20040;-60
2022/05/01 01:46:14;;;;;;;13.60;12.23;;;;;;;-148.33;100.00;56587.81;5029541;28;20610;-60
2022/05/01 01:48:40;;;;;;;13.35;12.15;;;;;;;-148.33;100.00;56587.81;5028957;28;20120;-59
2022/05/01 01:51:06;;;;;;;15.40;12.48;;;;;;;-148.33;100.00;56587.81;5029330;28;20025;-60
2022/05/01 01:53:33;;;;;;;13.73;12.35;;;;;;;-148.33;100.00;56587.81;5029554;28;20038;-59
2022/05/01 01:56:00;;;;;;;14.85;13.48;;;;;;;-148.33;100.00;56587.81;5028348;28;20056;-60
2022/05/01 01:58:27;;;;;;;14.43;12.90;;;;;;;-148.33;100.00;56587.81;5046530;28;20036;-60
2022/05/01 02:00:52;;;;;;;14.13;12.82;;;;;;;-148.33;100.00;56587.81;5048180;28;20025;-60
2022/05/01 02:03:18;;;;;;;13.80;12.30;;;;;;;-148.33;100.00;56587.81;5048235;28;20033;-60
2022/05/01 02:05:44;;;;;;;13.13;12.00;;;;;;;-148.33;100.00;56587.81;5047680;28;20032;-60
2022/05/01 02:08:09;;;;;;;13.82;12.18;;;;;;;-148.33;100.00;56587.81;5028983;28;20409;-59
2022/05/01 02:10:36;;;;;;;13.90;12.50;;;;;;;-148.33;100.00;56587.81;5029350;28;20025;-60
2022/05/01 02:13:03;;;;;;;14.60;13.25;;;;;;;-148.33;100.00;56587.81;5041869;28;20024;-60
2022/05/01 02:15:30;;;;;;;14.00;12.55;;;;;;;-148.33;100.00;56587.81;5048120;28;20032;-58
2022/05/01 02:17:57;;;;;;;14.38;12.85;;;;;;;-148.33;100.00;56587.81;5047857;28;20032;-59
2022/05/01 02:20:22;;;;;;;13.45;12.25;;;;;;;-148.33;100.00;56587.81;5028868;28;20103;-60
2022/05/01 02:22:47;;;;;;;13.52;12.15;;;;;;;-148.33;100.00;56587.81;5028896;28;20052;-60
2022/05/01 02:25:13;;;;;;;14.88;13.32;;;;;;;-148.33;100.00;56587.81;5028603;28;20025;-59
2022/05/01 02:27:38;;;;;;;13.60;12.20;;;;;;;-148.33;100.00;56587.81;5034293;28;20434;-59
2022/05/01 02:30:06;;;;;;;13.88;12.65;;;;;;;-148.33;100.00;56587.81;5047677;28;20036;-60
2022/05/01 02:32:31;;;;;;;16.00;13.32;;;;;;;-148.33;100.00;56587.81;5047300;28;20033;-60
2022/05/01 02:34:57;;;;;;;14.88;13.48;;;;;;;-148.33;100.00;56587.81;5047753;28;20033;-58
2022/05/01 02:37:22;;;;;;;16.10;13.35;;;;;;;-148.33;100.00;56587.81;5047090;28;20053;-60
2022/05/01 02:39:47;;;;;;;14.48;13.00;;;;;;;-148.33;100.00;56587.81;5030590;28;20029;-59
2022/05/01 02:42:13;;;;;;;14.50;13.18;;;;;;;-148.33;100.00;56587.81;5032298;28;20192;-60
2022/05/01 02:44:38;;;;;;;14.98;13.50;;;;;;;-148.33;100.00;56587.81;5045928;28;20039;-60
2022/05/01 02:47:05;;;;;;;15.05;13.57;;;;;;;-148.33;100.00;56587.81;5047025;28;20492;-59
2022/05/01 02:49:30;;;;;;;14.32;13.00;;;;;;;-148.33;100.00;56587.81;5047290;28;20032;-60
2022/05/01 02:51:56;;;;;;;15.30;13.80;;;;;;;-148.33;100.00;56587.81;5047774;28;20037;-59
2022/05/01 02:54:21;;;;;;;15.30;13.80;;;;;;;-148.33;100.00;56587.81;5045380;28;20041;-58
2022/05/01 02:56:49;;;;;;;15.63;14.07;;;;;;;-148.33;100.00;56587.81;5047694;28;20082;-59
2022/05/01 02:59:17;;;;;;;16.60;14.35;;;;;;;-148.33;100.00;56587.81;5047013;28;20032;-60
2022/05/01 03:01:44;;;;;;;15.75;14.18;;;;;;;-148.33;100.00;56587.81;5047242;28;20428;-59
2022/05/01 03:04:09;;;;;;;15.20;13.50;;;;;;;-148.33;100.00;56587.81;5047598;28;20021;-59
2022/05/01 03:06:35;;;;;;;15.27;13.77;;;;;;;-148.33;100.00;56587.81;5046759;28;20041;-60
2022/05/01 03:09:01;;;;;;;15.15;13.77;;;;;;;-148.33;100.00;56587.81;5047577;28;20036;-60
2022/05/01 03:11:26;;;;;;;16.50;14.50;;;;;;;-148.33;100.00;56587.81;5047439;28;20033;-59
2022/05/01 03:13:51;;;;;;;15.20;13.73;;;;;;;-148.33;100.00;56587.81;5047445;28;20025;-60
2022/05/01 03:16:17;;;;;;;16.05;14.32;;;;;;;-148.33;100.00;56587.81;5047197;28;20028;-60
2022/05/01 03:24:10;;;;;;;17.10;15.48;;;;;;;-148.33;100.00;56587.81;5047250;28;20574;-59
2022/05/01 03:26:36;;;;;;;16.33;14.70;;;;;;;-148.33;100.00;56587.81;5042542;28;20029;-60
2022/05/01 03:29:01;;;;;;;16.88;15.10;;;;;;;-148.33;100.00;56587.81;5028102;28;20488;-60
2022/05/01 03:31:27;;;;;;;15.77;14.25;;;;;;;-148.33;100.00;56587.81;5027404;28;20040;-60
2022/05/01 03:33:54;;;;;;;16.27;14.73;;;;;;;-148.33;100.00;56587.81;5027982;28;20367;-59
2022/05/01 03:36:20;;;;;;;16.23;14.73;;;;;;;-148.33;100.00;56587.81;5028126;28;20512;-60
2022/05/01 03:38:45;;;;;;;15.98;13.93;;;;;;;-148.33;100.00;56587.81;5027967;28;20104;-60
2022/05/01 03:41:15;;;;;;;16.83;15.23;;;;;;;-148.33;100.00;56587.81;5027870;28;20064;-59
2022/05/01 03:43:41;;;;;;;16.60;14.93;;;;;;;-148.33;100.00;56587.81;5029982;28;20076;-60
2022/05/01 03:46:06;;;;;;;16.90;15.13;;;;;;;-148.33;100.00;56587.81;5047336;28;20052;-60
2022/05/01 03:48:32;;;;;;;16.60;14.90;;;;;;;-148.33;100.00;56587.81;5046870;28;20525;-60
2022/05/01 03:50:58;;;;;;;16.45;14.82;;;;;;;-148.33;100.00;56587.81;5046939;28;20033;-61
2022/05/01 03:53:24;;;;;;;16.33;14.82;;;;;;;-148.33;100.00;56587.81;5047115;28;20032;-60
2022/05/01 03:55:51;;;;;;;15.75;14.32;;;;;;;-148.33;100.00;56587.81;5046197;28;20119;-58
2022/05/01 03:58:17;;;;;;;17.30;15.63;;;;;;;-148.33;100.00;56587.81;5046858;28;20036;-60
2022/05/01 04:00:44;;;;;;;16.48;14.98;;;;;;;-148.33;100.00;56587.81;5046407;28;20413;-60
2022/05/01 04:03:11;;;;;;;16.98;15.25;;;;;;;-148.33;100.00;56587.81;5045169;28;20025;-59
2022/05/01 04:05:37;;;;;;;16.80;15.07;;;;;;;-148.33;100.00;56587.81;5046743;28;20032;-60
2022/05/01 04:08:03;;;;;;;16.77;15.10;;;;;;;-148.33;100.00;56587.81;5048910;28;20035;-58
2022/05/01 04:10:28;;;;;;;16.83;15.13;;;;;;;-148.33;100.00;56587.81;5048695;28;20025;-58
2022/05/01 04:12:54;;;;;;;16.90;15.20;;;;;;;-148.33;100.00;56587.81;5048023;28;20068;-58
2022/05/01 04:15:19;;;;;;;17.50;15.73;;;;;;;-148.33;100.00;56587.81;5047891;28;20475;-58
2022/05/01 04:17:45;;;;;;;15.07;13.57;;;;;;;-148.33;100.00;56587.81;5048157;28;20032;-59
2022/05/01 04:20:13;;;;;;;17.80;15.07;;;;;;;-148.33;100.00;56587.81;5049404;28;20223;-60
2022/05/01 04:22:44;;;;;;;15.90;14.45;;;;;;;-148.33;100.00;56587.81;5049885;28;20029;-57
2022/05/01 04:25:20;;;;;;;16.45;14.85;;;;;;;-148.33;100.00;56587.81;5049622;28;20029;-60
2022/05/01 04:27:51;;;;;;;17.00;14.35;;;;;;;-148.33;100.00;56587.81;5049371;28;20082;-59
2022/05/01 04:30:16;;;;;;;17.23;15.50;;;;;;;-148.33;100.00;56587.81;5049581;28;20498;-60
2022/05/01 04:32:51;;;;;;;16.98;15.45;;;;;;;-148.33;100.00;56587.81;5049695;28;20017;-59
2022/05/01 04:35:21;;;;;;;17.10;15.25;;;;;;;-148.33;100.00;56587.81;5049828;28;20029;-59
2022/05/01 04:37:46;;;;;;;18.27;16.38;;;;;;;-148.33;100.00;56587.81;5049336;28;20521;-60
2022/05/01 04:40:11;;;;;;;17.65;16.10;;;;;;;-148.33;100.00;56587.81;5049446;28;20036;-60
2022/05/01 04:42:37;;;;;;;17.52;15.80;;;;;;;-148.33;100.00;56587.81;5041957;28;20088;-60
2022/05/01 04:45:03;;;;;;;17.40;15.80;;;;;;;-148.33;100.00;56587.81;5030418;28;20033;-59
2022/05/01 04:47:29;;;;;;;17.63;15.88;;;;;;;-148.33;100.00;56587.81;5030635;28;20021;-59
2022/05/01 04:49:54;;;;;;;18.02;15.57;;;;;;;-148.33;100.00;56587.81;5030537;28;20105;-60
2022/05/01 04:52:19;;;;;;;18.95;16.95;;;;;;;-148.33;100.00;56587.81;5030194;28;20030;-59
2022/05/01 04:54:45;;;;;;;17.73;15.95;;;;;;;-148.33;100.00;56587.81;5029803;28;20497;-60
2022/05/01 04:57:12;;;;;;;18.42;16.63;;;;;;;-148.33;100.00;56587.81;5032583;28;20445;-60
2022/05/01 04:59:37;;;;;;;18.02;16.27;;;;;;;-148.33;100.00;56587.81;5030851;28;20025;-60
2022/05/01 05:02:03;;;;;;;18.63;16.83;;;;;;;-148.33;100.00;56587.81;5030389;28;20378;-59
2022/05/01 05:04:29;;;;;;;18.52;16.55;;;;;;;-148.33;100.00;56587.81;5029918;28;20051;-60
2022/05/01 05:06:54;;;;;;;18.63;16.70;;;;;;;-148.33;100.00;56587.81;5030195;28;20032;-59
2022/05/01 05:12:06;;;;;;;19.40;17.42;;;;;;;-148.33;100.00;56587.81;5029678;28;20079;-60
2022/05/01 05:14:31;;;;;;;19.48;17.65;;;;;;;-148.33;100.00;56587.81;5030031;28;20021;-60
2022/05/01 05:16:57;;;;;;;18.98;17.08;;;;;;;-148.33;100.00;56587.81;5042109;28;20028;-60
2022/05/01 05:19:23;;;;;;;20.40;18.38;;;;;;;-148.33;100.00;56587.81;5048769;28;20044;-60
2022/05/01 05:21:48;;;;;;;19.27;17.30;;;;;;;-148.33;100.00;56587.81;5048663;28;20174;-58
2022/05/01 05:24:13;;;;;;;19.90;17.90;;;;;;;-148.33;100.00;56587.81;5048647;28;20021;-60
2022/05/01 05:26:39;;;;;;;19.85;17.80;;;;;;;-148.33;100.00;56587.81;5048639;28;20400;-59
2022/05/01 05:29:04;;;;;;;20.42;18.35;;;;;;;-148.33;100.00;56587.81;5043701;28;20024;-58
2022/05/01 05:31:29;;;;;;;20.33;18.25;;;;;;;-148.33;100.00;56587.81;5042002;28;20025;-60
2022/05/01 05:33:54;;;;;;;21.13;19.08;;;;;;;-148.33;100.00;56587.81;5040488;28;20021;-59
2022/05/01 05:36:20;;;;;;;21.92;19.80;;;;;;;-148.33;100.00;56587.81;5042698;28;20045;-60
2022/05/01 05:38:45;;;;;;;22.67;20.48;;;;;;;-148.33;100.00;56587.81;5041753;28;20179;-59
2022/05/01 05:41:10;;;;;;;22.77;20.52;;;;;;;-148.33;100.00;56587.81;5044376;28;20036;-60
2022/05/01 05:43:36;;;;;;;22.17;19.90;;;;;;;-148.33;100.00;56587.81;5036424;28;20036;-60
2022/05/01 05:46:01;;;;;;;21.85;19.58;;;;;;;-148.33;100.00;56587.81;5044182;28;20094;-59
2022/05/01 05:48:26;;;;;;;21.70;19.77;;;;;;;-148.33;100.00;56587.81;5039013;28;20414;-60
2022/05/01 05:50:51;;;;;;;22.27;20.00;;;;;;;-148.33;100.00;56587.81;5029173;28;20454;-59
2022/05/01 05:53:17;;;;;;;23.65;21.38;;;;;;;-148.33;100.00;56587.81;5029580;28;20352;-58
2022/05/01 05:55:45;;;;;;;24.48;21.30;;;;;;;-148.33;100.00;56587.81;5028748;28;20396;-59
2022/05/01 05:58:10;;;;;;;24.15;21.75;;;;;;;-148.33;100.00;56587.81;5034722;28;20070;-58
2022/05/01 06:00:35;;;;;;;25.17;22.88;;;;;;;-148.33;100.00;56587.81;5029027;28;20114;-59
2022/05/01 06:03:01;;;;;;;25.27;22.83;;;;;;;-148.33;100.00;56587.81;5029082;28;20481;-59
2022/05/01 06:05:27;;;;;;;25.48;22.77;;;;;;;-148.33;100.00;56587.81;5028899;28;20026;-59
2022/05/01 06:07:52;;;;;;;25.05;22.50;;;;;;;-148.33;100.00;56587.81;5028944;28;20036;-58
2022/05/01 06:10:17;;;;;;;24.70;22.15;;;;;;;-148.33;100.00;56587.81;5028658;28;20033;-58
2022/05/01 06:12:44;;;;;;;22.77;20.58;;;;;;;-148.33;100.00;56587.81;5030431;28;20417;-59
2022/05/01 06:15:10;;;;;;;23.45;21.02;;;;;;;-148.33;100.00;56587.81;5036039;28;20474;-59
2022/05/01 06:17:36;;;;;;;24.38;21.75;;;;;;;-148.33;100.00;56587.81;5030404;28;20025;-58
2022/05/01 06:20:01;;;;;;;23.27;21.00;;;;;;;-148.33;100.00;56587.81;5034201;28;20512;-59
2022/05/01 06:22:26;;;;;;;22.70;20.50;;;;;;;-148.33;100.00;56587.81;5047689;28;20460;-58
2022/05/01 06:24:52;;;;;;;23.08;20.80;;;;;;;-148.33;100.00;56587.81;5047799;28;20048;-59
2022/05/01 06:27:17;;;;;;;23.58;21.27;;;;;;;-148.33;100.00;56587.81;5047586;28;20033;-59
2022/05/01 06:29:44;;;;;;;23.70;21.17;;;;;;;-148.33;100.00;56587.81;5047953;28;20591;-58
2022/05/01 06:32:10;;;;;;;24.85;22.55;;;;;;;-148.33;100.00;56587.81;5047861;28;20248;-60
2022/05/01 06:34:36;;;;;;;24.40;22.00;;;;;;;-148.33;100.00;56587.81;5044832;28;20022;-59
2022/05/01 06:37:02;;;;;;;24.10;21.70;;;;;;;-148.33;100.00;56587.81;5043967;28;20045;-59
2022/05/01 06:39:28;;;;;;;21.70;19.45;;;;;;;-148.33;100.00;56587.81;5041303;28;20035;-59
2022/05/01 06:41:54;;;;;;;21.48;19.42;;;;;;;-148.33;100.00;56587.81;5042528;28;20034;-59
2022/05/01 06:44:19;;;;;;;21.27;19.17;;;;;;;-148.33;100.00;56587.81;5038231;28;20030;-59
2022/05/01 06:46:44;;;;;;;20.67;18.48;;;;;;;-148.33;100.00;56587.81;5043806;28;20047;-60
2022/05/01 06:49:11;;;;;;;20.67;17.90;;;;;;;-148.33;100.00;56587.81;5036693;28;20029;-60
2022/05/01 06:51:36;;;;;;;21.75;19.52;;;;;;;-148.33;100.00;56587.81;5044912;28;20032;-59
2022/05/01 06:54:03;;;;;;;21.70;19.60;;;;;;;-148.33;100.00;56587.81;5027847;28;20384;-59
2022/05/01 06:56:28;;;;;;;20.42;18.52;;;;;;;-148.33;100.00;56587.81;5026950;28;20037;-60
2022/05/01 06:58:53;;;;;;;21.08;18.95;;;;;;;-148.33;100.00;56587.81;5039401;28;20041;-60
2022/05/01 07:01:18;;;;;;;21.92;19.63;;;;;;;-148.33;100.00;56587.81;5027374;28;20087;-60
2022/05/01 07:03:46;;;;;;;22.80;20.42;;;;;;;-148.33;100.00;56587.81;5040412;28;20040;-59
2022/05/01 07:06:11;;;;;;;23.05;20.83;;;;;;;-148.33;100.00;56587.81;5046087;28;20461;-60
2022/05/01 07:08:37;;;;;;;22.33;20.23;;;;;;;-148.33;100.00;56587.81;5036523;28;20037;-60
2022/05/01 07:11:02;;;;;;;20.88;18.70;;;;;;;-148.33;100.00;56587.81;5042426;28;20318;-60
2022/05/01 07:13:27;;;;;;;20.50;18.50;;;;;;;-148.33;100.00;56587.81;5042631;28;20473;-60
2022/05/01 07:15:53;;;;;;;20.35;18.17;;;;;;;-148.33;100.00;56587.81;5035428;28;20201;-60
2022/05/01 07:18:18;;;;;;;19.77;17.75;;;;;;;-148.33;100.00;56587.81;5046823;28;20102;-59
2022/05/01 07:20:45;;;;;;;18.98;17.17;;;;;;;-148.33;100.00;56587.81;5036726;28;20040;-60
2022/05/01 07:23:10;;;;;;;20.02;18.02;;;;;;;-148.33;100.00;56587.81;5039748;28;20052;-59
2022/05/01 07:25:36;;;;;;;19.17;17.27;;;;;;;-148.33;100.00;56587.81;5039429;28;20441;-58
2022/05/01 07:28:01;;;;;;;19.15;17.33;;;;;;;-148.33;100.00;56587.81;5047527;28;20056;-60
2022/05/01 07:30:26;;;;;;;17.80;16.13;;;;;;;-148.33;100.00;56587.81;5046889;28;20040;-59
2022/05/01 07:32:51;;;;;;;17.70;16.02;;;;;;;-148.33;100.00;56587.81;5031036;28;20057;-60
2022/05/01 07:35:17;;;;;;;17.10;15.48;;;;;;;-148.33;100.00;56587.81;5028070;28;20403;-60
2022/05/01 07:37:42;;;;;;;17.23;15.45;;;;;;;-148.33;100.00;56587.81;5036769;28;20053;-60
2022/05/01 07:40:09;;;;;;;16.25;14.55;;;;;;;-148.33;100.00;56587.81;5041313;28;20564;-60
2022/05/01 07:42:34;;;;;;;16.58;14.23;;;;;;;-148.33;100.00;56587.81;5044150;28;20311;-60
2022/05/01 07:44:59;;;;;;;15.45;13.95;;;;;;;-148.33;100.00;56587.81;5048275;28;20031;-60
2022/05/01 07:47:26;;;;;;;17.33;15.25;;;;;;;-148.33;100.00;56587.81;5047479;28;20584;-60
2022/05/01 07:49:51;;;;;;;16.13;14.63;;;;;;;-148.33;100.00;56587.81;5049153;28;20119;-60
2022/05/01 07:52:16;;;;;;;16.90;15.20;;;;;;;-148.33;100.00;56587.81;5049783;28;20516;-60
2022/05/01 07:54:42;;;;;;;15.45;13.88;;;;;;;-148.33;100.00;56587.81;5047225;28;20027;-61
2022/05/01 07:57:07;;;;;;;15.10;13.63;;;;;;;-148.33;100.00;56587.81;5042578;28;20028;-61
2022/05/01 07:59:33;;;;;;;14.80;13.23;;;;;;;-148.33;100.00;56587.81;5044589;28;20069;-61
2022/05/01 08:01:58;;;;;;;16.92;14.57;;;;;;;-148.33;100.00;56587.81;5038313;28;20029;-60
2022/05/01 08:04:29;;;;;;;15.68;13.95;;;;;;;-148.33;100.00;56587.81;5031700;28;20040;-61
2022/05/01 08:07:00;;;;;;;16.13;14.13;;;;;;;-148.33;100.00;56587.81;5031670;28;20040;-60
2022/05/01 08:09:26;;;;;;;15.10;13.50;;;;;;;-148.33;100.00;56587.81;5048166;28;20052;-60
2022/05/01 08:11:52;;;;;;;15.23;13.73;;;;;;;-148.33;100.00;56587.81;5036387;28;20288;-60
2022/05/01 08:14:18;;;;;;;14.93;13.63;;;;;;;-148.33;100.00;56587.81;5031232;28;20036;-60
2022/05/01 08:16:44;;;;;;;17.20;14.98;;;;;;;-148.33;100.00;56587.81;5038400;28;20477;-60
2022/05/01 08:21:53;;;;;;;13.00;11.73;;;;;;;-148.33;100.00;56587.81;5042764;28;20485;-60
2022/05/01 08:24:19;;;;;;;13.60;12.23;;;;;;;-148.33;100.00;56587.81;5031502;28;20037;-61
2022/05/01 08:26:47;;;;;;;14.18;11.20;;;;;;;-148.33;100.00;56587.81;5031759;28;20497;-60
2022/05/01 08:29:15;;;;;;;11.52;10.20;;;;;;;-148.33;100.00;56587.81;5037654;28;20367;-60
2022/05/01 08:31:42;;;;;;;10.98;9.98;;;;;;;-148.33;100.00;56587.81;5035502;28;20036;-60
2022/05/01 08:34:08;;;;;;;12.75;11.43;;;;;;;-148.33;100.00;56587.81;5037177;28;20029;-60
2022/05/01 08:36:34;;;;;;;10.93;8.98;;;;;;;-148.33;100.00;56587.81;5042503;28;20052;-60
2022/05/01 08:38:59;;;;;;;13.55;10.13;;;;;;;-148.33;100.00;56587.81;5042986;28;20032;-60
2022/05/01 08:41:28;;;;;;;9.88;8.93;;;;;;;-148.33;100.00;56587.81;5046032;28;20028;-60
2022/05/01 08:43:56;;;;;;;8.93;8.23;;;;;;;-148.33;100.00;56587.81;5045587;28;20035;-60
2022/05/01 08:46:24;;;;;;;8.43;7.63;;;;;;;-148.33;100.00;56587.81;5043915;28;20030;-59
2022/05/01 08:48:55;;;;;;;9.60;8.70;;;;;;;-148.33;100.00;56587.81;5045722;28;20036;-61
2022/05/01 08:51:21;;;;;;;;;;;;;;;-148.33;100.00;56587.81;5044120;28;20095;-60
2022/05/01 08:53:48;;;;;;;8.13;7.32;;;;;;;-148.33;100.00;56587.81;5043383;28;20046;-60
2022/05/01 08:56:14;;;;;;;7.88;7.18;;;;;;;-148.33;100.00;56587.81;5046611;28;20023;-60
2022/05/01 08:58:40;;;;;;;9.60;8.60;;;;;;;-148.33;100.00;56587.81;5047703;28;20033;-60
2022/05/01 09:01:08;;;;;;;9.55;8.52;;;;;;;-148.33;100.00;56587.81;5048858;28;20089;-61
2022/05/01 09:03:34;;;;;;;7.40;6.80;;;;;;;-148.33;100.00;56587.81;5043457;28;20029;-60
2022/05/01 09:05:59;;;;;;;9.07;8.27;;;;;;;-148.33;100.00;56587.81;5032848;28;20025;-61
2022/05/01 09:08:26;;;;;;;7.55;6.90;;;;;;;-148.33;100.00;56587.81;5036982;28;20387;-60
2022/05/01 09:10:51;;;;;;;8.93;7.70;;;;;;;-148.33;100.00;56587.81;5040881;28;20021;-60
2022/05/01 09:13:23;;;;;;;7.07;6.38;;;;;;;-148.33;100.00;56587.81;5040227;28;20495;-60
2022/05/01 09:15:49;;;;;;;5.13;4.05;;;;;;;-148.33;100.00;56587.81;5042351;28;20021;-61
2022/05/01 09:18:14;;;;;;;5.75;4.72;;;;;;;-148.33;100.00;56587.81;5042975;28;20021;-60
2022/05/01 09:21:02;;;;;;;7.85;6.35;;;;;;;-148.33;100.00;56587.81;5048460;28;20645;-60
2022/05/01 09:23:41;;;;;;;6.72;6.13;;;;;;;-148.33;100.00;56587.81;5044139;28;20025;-60
2022/05/01 09:26:09;;;;;;;7.70;6.90;;;;;;;-148.33;100.00;56587.81;5040643;28;20021;-60
2022/05/01 09:28:36;;;;;;;6.82;6.18;;;;;;;-148.33;100.00;56587.81;5049061;28;20028;-61
2022/05/01 09:31:01;;;;;;;7.88;7.05;;;;;;;-148.33;100.00;56587.81;5044733;28;20540;-59
2022/05/01 09:33:27;;;;;;;6.97;6.30;;;;;;;-148.33;100.00;56587.81;5042090;28;20025;-60
2022/05/01 09:35:52;;;;;;;6.90;6.20;;;;;;;-148.33;100.00;56587.81;5048641;28;20029;-60
2022/05/01 09:38:25;;;;;;;7.40;6.60;;;;;;;-148.33;100.00;56587.81;5044596;28;20025;-60
2022/05/01 09:40:56;;;;;;;6.25;5.63;;;;;;;-148.33;100.00;56587.81;5041510;28;20371;-61
2022/05/01 09:43:41;;;;;;;6.22;5.63;;;;;;;-148.33;100.00;56587.81;5045010;28;20059;-61
2022/05/01 09:46:29;;;;;;;7.80;7.07;;;;;;;-148.33;100.00;56587.81;5044336;28;20020;-60
2022/05/01 09:49:00;;;;;;;6.22;5.63;;;;;;;-148.33;100.00;56587.81;5045546;28;20027;-61
2022/05/01 09:51:28;;;;;;;7.07;6.07;;;;;;;-148.33;100.00;56587.81;5044603;28;20021;-60
2022/05/01 09:53:54;;;;;;;7.82;6.20;;;;;;;-148.33;100.00;56587.81;5043407;28;20471;-60
2022/05/01 09:56:19;;;;;;;6.82;6.10;;;;;;;-148.33;100.00;56587.81;5045298;28;20021;-60
2022/05/01 09:58:45;;;;;;;6.68;6.00;;;;;;;-148.33;100.00;56587.81;5045096;28;20418;-60
2022/05/01 10:01:15;;;;;;;6.78;6.18;;;;;;;-148.33;100.00;56587.81;5048331;28;20363;-60
2022/05/01 10:03:46;;;;;;;7.28;6.22;;;;;;;-148.33;100.00;56587.81;5044243;28;20033;-60
2022/05/01 10:06:15;;;;;;;;;;;;;;;-148.33;100.00;56587.81;5043804;28;20489;-61
2022/05/01 10:08:43;;;;;;;6.95;6.25;;;;;;;-148.33;100.00;56587.81;5045106;28;19916;-60
2022/05/01 10:11:08;;;;;;;9.30;6.72;;;;;;;-148.33;100.00;56587.81;5041537;28;20021;-60
2022/05/01 10:13:35;;;;;;;6.20;5.60;;;;;;;-148.33;100.00;56587.81;5041299;28;20519;-60
2022/05/01 10:16:06;;;;;;;7.18;6.47;;;;;;;-148.33;100.00;56587.81;5040833;28;20266;-60
2022/05/01 10:18:31;;;;;;;6.68;6.07;;;;;;;-148.33;100.00;56587.81;5041001;28;20530;-60
2022/05/01 10:20:57;;;;;;;7.82;6.20;;;;;;;-148.33;100.00;56587.81;5039926;28;20017;-60
2022/05/01 10:23:22;;;;;;;7.15;6.20;;;;;;;-148.33;100.00;56587.81;5046782;28;20707;-60
2022/05/01 10:25:56;;;;;;;7.40;6.70;;;;;;;-148.33;100.00;56587.81;5041426;28;20024;-60
2022/05/01 10:28:56;;;;;;;6.82;6.28;;;;;;;-148.33;100.00;56587.81;5037417;28;20531;-60
2022/05/01 10:34:58;;;;;;;8.13;6.28;;;;;;;-148.33;100.00;56587.81;5044898;28;20095;-61
2022/05/01 10:37:46;;;;;;;7.57;6.85;;;;;;;-148.33;100.00;56587.81;5047775;28;20045;-60
2022/05/01 10:40:12;;;;;;;7.10;6.47;;;;;;;-148.33;100.00;56587.81;5038505;28;20028;-60
2022/05/01 10:42:52;;;;;;;7.55;6.80;;;;;;;-148.33;100.00;56587.81;5037029;28;20016;-61
2022/05/01 10:45:23;;;;;;;7.85;7.07;;;;;;;-148.33;100.00;56587.81;5047833;28;20096;-59
2022/05/01 10:47:53;;;;;;;7.63;6.90;;;;;;;-148.33;100.00;56587.81;5035553;28;20473;-61
2022/05/01 10:50:26;;;;;;;7.50;6.80;;;;;;;-148.33;100.00;56587.81;5032671;28;20013;-61
2022/05/01 10:53:03;;;;;;;8.15;7.45;;;;;;;-148.33;100.00;56587.81;5028646;28;20373;-61
2022/05/01 10:55:50;;;;;;;7.90;7.05;;;;;;;-148.33;100.00;56587.81;5038299;28;20065;-61
2022/05/01 10:58:26;;;;;;;9.98;7.13;;;;;;;-148.33;100.00;56587.81;5022277;28;20129;-61
2022/05/01 11:00:53;;;;;;;7.13;6.43;;;;;;;-148.33;100.00;56587.81;5037321;28;20094;-61
2022/05/01 11:03:29;;;;;;;7.28;6.63;;;;;;;-148.33;100.00;56587.81;5044821;28;20021;-61
2022/05/01 11:06:00;;;;;;;8.77;6.93;;;;;;;-148.33;100.00;56587.81;5040502;28;20039;-61
2022/05/01 11:08:27;;;;;;;8.60;7.35;;;;;;;-148.33;100.00;56587.81;5042732;28;20083;-60
2022/05/01 11:10:55;;;;;;;8.05;7.28;;;;;;;-148.33;100.00;56587.81;5032622;28;20026;-61
2022/05/01 11:13:26;;;;;;;7.55;6.85;;;;;;;-148.33;100.00;56587.81;5039599;28;20104;-61
2022/05/01 11:15:53;;;;;;;7.38;6.78;;;;;;;-148.33;100.00;56587.81;5039735;28;20064;-61
2022/05/01 11:18:29;;;;;;;8.00;7.18;;;;;;;-148.33;100.00;56587.81;5044126;28;20035;-60